Estrela Do Mar — CUMD9 — position and weather

sailwx.info

Track history (hours):
 
Tides and Currents Weather Stations Pressure Air Temp Water Temp Dewpoint Dewpoint Depression Visibility Wind Speed Wind Dir Waves Ship Positions

Estrela Do Mar

Last reported at 2017-Oct-20 07:42 UTC. Time now 2017-Oct-22 08:28 UTC.
Position N 37°57' W 008°52'.

Length 26 m; draft 3.5 m.

Type: Fishing. MMSI: 263407280.

Date/timePositionNaut miles runAvg speedWind from/ knotsBaromVisibWave heightAir tempDewpointWater temp
2017-Oct-20 07:42N 37°57' W 008°52'0 0.7
2017-Oct-20 07:30N 37°57' W 008°52'0 0.0
2017-Oct-20 07:00N 37°57' W 008°52'0 0.0
2017-Oct-20 06:30N 37°57' W 008°52'0 0.0
2017-Oct-20 06:00N 37°57' W 008°52'0 0.0
2017-Oct-20 05:30N 37°57' W 008°52'1 2.9
2017-Oct-20 05:00N 37°58' W 008°54'5 9.0
2017-Oct-20 04:30N 38°02' W 008°51'0 0.4
2017-Oct-20 04:00N 38°02' W 008°51'0 0.2
2017-Oct-20 03:30N 38°02' W 008°51'0 0.0
2017-Oct-20 03:00N 38°02' W 008°51'3 6.6
2017-Oct-20 02:30N 37°59' W 008°54'2 4.5
2017-Oct-20 02:00N 37°57' W 008°52'0 0.0
2017-Oct-20 01:30N 37°57' W 008°52'0 0.0
2017-Oct-20 01:00N 37°57' W 008°52'0 0.0
2017-Oct-20 00:30N 37°57' W 008°52'0 0.0
2017-Oct-20 00:00N 37°57' W 008°52'0 0.0
2017-Oct-19 23:30N 37°57' W 008°52'0 0.0
2017-Oct-19 23:00N 37°57' W 008°52'0 0.0
2017-Oct-19 08:11N 37°57' W 008°52'0 0.5
2017-Oct-19 08:00N 37°57' W 008°52'0 0.0
2017-Oct-19 07:30N 37°57' W 008°52'0 0.0
2017-Oct-19 07:00N 37°57' W 008°52'0 0.0
2017-Oct-19 06:30N 37°57' W 008°52'0 0.0
2017-Oct-19 06:00N 37°57' W 008°52'0 0.0
2017-Oct-19 05:30N 37°57' W 008°52'1 3.0
2017-Oct-19 05:00N 37°58' W 008°54'3 6.8
2017-Oct-19 04:30N 38°01' W 008°53'0 0.1
2017-Oct-19 04:00N 38°01' W 008°53'0 0.3
2017-Oct-19 03:30N 38°01' W 008°53'0 0.3
2017-Oct-19 03:00N 38°01' W 008°53'3 5.0
2017-Oct-19 02:30N 37°59' W 008°54'2 4.7
2017-Oct-19 02:00N 37°57' W 008°52'0 0.0
2017-Oct-19 01:30N 37°57' W 008°52'0 0.0
2017-Oct-19 01:00N 37°57' W 008°52'0 0.0
2017-Oct-19 00:30N 37°57' W 008°52'0 0.0
2017-Oct-19 00:00N 37°57' W 008°52'0 0.0
2017-Oct-18 23:30N 37°57' W 008°52'0 0.0
2017-Oct-18 23:00N 37°57' W 008°52'0 0.0
2017-Oct-18 22:30N 37°57' W 008°52'0 0.0
2017-Oct-18 09:48N 37°57' W 008°52'1 4.7
2017-Oct-18 09:30N 37°56' W 008°54'2 4.8
2017-Oct-18 09:00N 37°58' W 008°55'5 9.7
2017-Oct-18 08:30N 37°54' W 008°53'4 7.2
2017-Oct-18 08:00N 37°50' W 008°52'4 7.3
2017-Oct-18 07:30N 37°47' W 008°51'3 6.2
2017-Oct-18 07:00N 37°50' W 008°52'4 8.9
2017-Oct-18 06:30N 37°54' W 008°50'4 8.3
2017-Oct-18 06:00N 37°57' W 008°52'0 0.0
2017-Oct-18 05:30N 37°57' W 008°52'0 0.0
2017-Oct-18 05:00N 37°57' W 008°52'0 0.0
2017-Oct-18 04:30N 37°57' W 008°52'0 0.0
2017-Oct-18 04:00N 37°57' W 008°52'0 0.0
2017-Oct-18 03:30N 37°57' W 008°52'0 0.0
2017-Oct-17 11:05N 37°57' W 008°52'0 0.0
2017-Oct-17 11:00N 37°57' W 008°52'0 0.0
2017-Oct-17 10:31N 37°57' W 008°52'2 4.3
2017-Oct-17 10:01N 37°55' W 008°52'4 8.4
2017-Oct-17 09:31N 37°51' W 008°52'0 0.3
2017-Oct-17 09:01N 37°51' W 008°52'0 0.1
2017-Oct-17 08:31N 37°51' W 008°52'2 4.4
2017-Oct-17 08:01N 37°48' W 008°52'4 7.4
2017-Oct-17 07:31N 37°52' W 008°52'3 5.4
2017-Oct-17 07:01N 37°55' W 008°50'3 6.0
2017-Oct-17 06:30N 37°57' W 008°52'0 0.0
2017-Oct-17 06:00N 37°57' W 008°52'0 0.0
2017-Oct-17 05:31N 37°57' W 008°52'2 4.4
2017-Oct-17 05:00N 37°59' W 008°53'3 5.6
2017-Oct-17 04:31N 38°02' W 008°52'0 0.2
2017-Oct-17 04:01N 38°02' W 008°52'0 0.2
2017-Oct-17 03:30N 38°01' W 008°52'0 0.1
2017-Oct-17 03:01N 38°01' W 008°52'3 6.7
2017-Oct-17 02:31N 37°59' W 008°54'2 4.2
2017-Oct-17 02:00N 37°57' W 008°52'0 0.0
2017-Oct-17 01:31N 37°57' W 008°52'0 0.0
2017-Oct-17 01:01N 37°57' W 008°52'0 0.0
2017-Oct-17 00:31N 37°57' W 008°52'0 0.0
2017-Oct-17 00:01N 37°57' W 008°52'0 0.0
2017-Oct-16 23:31N 37°57' W 008°52'0 0.0
2017-Oct-16 23:01N 37°57' W 008°52'0 0.0
2017-Oct-16 22:31N 37°57' W 008°52'0 0.0
2017-Oct-16 22:01N 37°57' W 008°52'5 9.0
2017-Oct-16 21:31N 37°53' W 008°52'1 2.3
2017-Oct-16 21:01N 37°52' W 008°52'0 0.1
2017-Oct-16 20:31N 37°51' W 008°51'2 4.2
2017-Oct-16 20:01N 37°54' W 008°51'3 5.7
2017-Oct-16 19:31N 37°56' W 008°52'1 1.6
2017-Oct-16 19:00N 37°57' W 008°52'0 0.0
2017-Oct-16 11:39N 37°57' W 008°52'0 0.0
2017-Oct-16 11:30N 37°57' W 008°52'0 0.0
2017-Oct-16 11:00N 37°57' W 008°52'0 0.0
2017-Oct-16 10:30N 37°57' W 008°52'5 9.6
2017-Oct-16 10:00N 37°52' W 008°52'2 3.8
2017-Oct-16 09:30N 37°50' W 008°52'0 0.1
2017-Oct-16 09:00N 37°50' W 008°52'0 0.2
2017-Oct-16 08:30N 37°50' W 008°52'2 3.3
2017-Oct-16 08:00N 37°49' W 008°52'3 5.7
2017-Oct-16 07:30N 37°52' W 008°52'2 3.9
2017-Oct-16 07:00N 37°53' W 008°50'1 1.9
2017-Oct-16 06:30N 37°54' W 008°50'4 7.7
2017-Oct-16 06:00N 37°57' W 008°52'0 0.0
2017-Oct-16 05:30N 37°57' W 008°52'0 0.0
2017-Oct-16 05:00N 37°57' W 008°52'2 4.1
2017-Oct-16 04:30N 37°59' W 008°54'5 9.7
2017-Oct-16 04:00N 38°03' W 008°52'5 9.6
2017-Oct-16 03:30N 38°08' W 008°50'3 5.6
2017-Oct-16 03:00N 38°10' W 008°49'0 0.3
2017-Oct-16 02:30N 38°10' W 008°49'0 0.3
2017-Oct-16 02:00N 38°10' W 008°49'0 0.4
2017-Oct-16 01:30N 38°10' W 008°49'2 3.2
2017-Oct-16 01:00N 38°11' W 008°48'0 0.4
2017-Oct-16 00:30N 38°11' W 008°48'0 0.3
2017-Oct-16 00:00N 38°11' W 008°48'3 6.4
2017-Oct-15 23:28N 38°14' W 008°49'2 4.9
2017-Oct-15 23:00N 38°12' W 008°48'3 5.3
2017-Oct-15 22:30N 38°10' W 008°49'4 8.3
2017-Oct-15 22:00N 38°06' W 008°51'510.3
2017-Oct-15 21:30N 38°02' W 008°55'510.1
2017-Oct-15 21:00N 37°57' W 008°54'1 2.6
2017-Oct-15 20:30N 37°57' W 008°52'  
2017-Oct-13 09:05N 37°57' W 008°52'0 0.8
2017-Oct-13 09:00N 37°57' W 008°52'0 0.2
2017-Oct-13 08:30N 37°57' W 008°52'0 0.0
2017-Oct-13 08:00N 37°57' W 008°52'2 3.6
2017-Oct-13 07:30N 37°58' W 008°54'510.7
2017-Oct-13 07:00N 38°04' W 008°53'510.6
2017-Oct-13 06:30N 38°09' W 008°50'0 0.2
2017-Oct-13 06:00N 38°09' W 008°50'0 0.2
2017-Oct-13 05:30N 38°09' W 008°50'0 0.2
2017-Oct-13 05:00N 38°09' W 008°50'0 0.2
2017-Oct-13 04:30N 38°09' W 008°50'3 7.0
2017-Oct-13 04:00N 38°05' W 008°50'510.3
2017-Oct-13 03:30N 38°00' W 008°53'4 8.0
2017-Oct-13 03:00N 37°56' W 008°52'1 1.4
2017-Oct-13 02:30N 37°57' W 008°52'0 0.0
2017-Oct-13 02:00N 37°57' W 008°52'0 0.0
2017-Oct-13 01:30N 37°57' W 008°52'0 0.0
2017-Oct-13 01:00N 37°57' W 008°52'0 0.0
2017-Oct-13 00:30N 37°57' W 008°52'0 0.3
2017-Oct-13 00:00N 37°57' W 008°52'0 0.0
2017-Oct-12 23:30N 37°57' W 008°52'4 8.6
2017-Oct-12 23:00N 37°54' W 008°49'1 1.0
2017-Oct-12 22:30N 37°53' W 008°50'0 0.0
2017-Oct-12 22:00N 37°53' W 008°50'0 0.2
2017-Oct-12 21:30N 37°53' W 008°50'1 1.2
2017-Oct-12 21:00N 37°54' W 008°50'1 1.3
2017-Oct-12 20:30N 37°54' W 008°49'0 0.1
2017-Oct-12 20:00N 37°54' W 008°49'0 0.0
2017-Oct-12 19:30N 37°54' W 008°49'0 0.9
2017-Oct-12 19:00N 37°54' W 008°49'4 8.4
2017-Oct-12 18:30N 37°57' W 008°52'0 0.4
2017-Oct-12 18:00N 37°57' W 008°52'0 0.0
2017-Oct-12 09:57N 37°57' W 008°52'0 0.1
2017-Oct-12 09:30N 37°57' W 008°52'0 0.0
2017-Oct-12 09:00N 37°57' W 008°52'0 0.0
2017-Oct-12 08:30N 37°57' W 008°52'0 0.0
2017-Oct-12 08:00N 37°57' W 008°52'1 2.4
2017-Oct-12 07:30N 37°57' W 008°54'511.0
2017-Oct-12 07:00N 38°03' W 008°52'510.3
2017-Oct-12 06:28N 38°08' W 008°50'0 0.1
2017-Oct-12 06:00N 38°08' W 008°50'0 0.2
2017-Oct-12 05:30N 38°08' W 008°50'0 0.1
2017-Oct-12 05:00N 38°08' W 008°50'2 3.4
2017-Oct-12 04:30N 38°06' W 008°51'3 7.0
2017-Oct-12 04:00N 38°03' W 008°50'0 0.2
2017-Oct-12 03:30N 38°03' W 008°50'0 0.4
2017-Oct-12 03:00N 38°03' W 008°50'3 6.0
2017-Oct-12 02:30N 38°01' W 008°53'5 9.5
2017-Oct-12 02:00N 37°56' W 008°53'1 2.3
2017-Oct-12 01:30N 37°57' W 008°52'0 0.0
2017-Oct-12 01:00N 37°57' W 008°52'0 0.0
2017-Oct-12 00:30N 37°57' W 008°52'4 7.6
2017-Oct-12 00:00N 37°54' W 008°49'0 0.5
2017-Oct-11 23:30N 37°54' W 008°49'0 0.1
2017-Oct-11 23:00N 37°54' W 008°49'0 0.2
2017-Oct-11 22:30N 37°54' W 008°49'1 1.2
2017-Oct-11 22:00N 37°54' W 008°49'0 0.2
2017-Oct-11 21:30N 37°54' W 008°49'0 0.2
2017-Oct-11 21:00N 37°54' W 008°49'0 0.1
2017-Oct-11 20:30N 37°54' W 008°49'0 0.2
2017-Oct-11 20:00N 37°54' W 008°49'2 4.2
2017-Oct-11 19:30N 37°55' W 008°51'2 3.6
2017-Oct-11 19:00N 37°57' W 008°52'3 0.2
2017-Oct-11 00:01N 37°60' W 008°53'5 9.4
2017-Oct-10 23:30N 37°55' W 008°52'2 4.5
2017-Oct-10 23:00N 37°54' W 008°50'0 0.1
2017-Oct-10 22:30N 37°54' W 008°50'0 0.2
2017-Oct-10 22:00N 37°54' W 008°50'2 3.8
2017-Oct-10 21:30N 37°55' W 008°51'2 3.7
2017-Oct-10 21:00N 37°57' W 008°52'0 0.0
2017-Oct-10 08:15N 37°57' W 008°52'0 0.3
2017-Oct-10 08:00N 37°57' W 008°52'  
Track history (hours):
 
Tides and Currents Weather Stations Pressure Air Temp Water Temp Dewpoint Dewpoint Depression Visibility Wind Speed Wind Dir Waves Ship Positions

Estrela Do Mar

Last reported at 2017-Oct-20 07:42 UTC. Time now 2017-Oct-22 08:28 UTC.
Position N 37°57' W 008°52'.

Length 26 m; draft 3.5 m.

Type: Fishing. MMSI: 263407280.

Date/timePositionNaut miles runAvg speedWind from/ knotsBaromVisibWave heightAir tempDewpointWater temp
2017-Oct-20 07:42N 37°57' W 008°52'0 0.7
2017-Oct-20 07:30N 37°57' W 008°52'0 0.0
2017-Oct-20 07:00N 37°57' W 008°52'0 0.0
2017-Oct-20 06:30N 37°57' W 008°52'0 0.0
2017-Oct-20 06:00N 37°57' W 008°52'0 0.0
2017-Oct-20 05:30N 37°57' W 008°52'1 2.9
2017-Oct-20 05:00N 37°58' W 008°54'5 9.0
2017-Oct-20 04:30N 38°02' W 008°51'0 0.4
2017-Oct-20 04:00N 38°02' W 008°51'0 0.2
2017-Oct-20 03:30N 38°02' W 008°51'0 0.0
2017-Oct-20 03:00N 38°02' W 008°51'3 6.6
2017-Oct-20 02:30N 37°59' W 008°54'2 4.5
2017-Oct-20 02:00N 37°57' W 008°52'0 0.0
2017-Oct-20 01:30N 37°57' W 008°52'0 0.0
2017-Oct-20 01:00N 37°57' W 008°52'0 0.0
2017-Oct-20 00:30N 37°57' W 008°52'0 0.0
2017-Oct-20 00:00N 37°57' W 008°52'0 0.0
2017-Oct-19 23:30N 37°57' W 008°52'0 0.0
2017-Oct-19 23:00N 37°57' W 008°52'0 0.0
2017-Oct-19 08:11N 37°57' W 008°52'0 0.5
2017-Oct-19 08:00N 37°57' W 008°52'0 0.0
2017-Oct-19 07:30N 37°57' W 008°52'0 0.0
2017-Oct-19 07:00N 37°57' W 008°52'0 0.0
2017-Oct-19 06:30N 37°57' W 008°52'0 0.0
2017-Oct-19 06:00N 37°57' W 008°52'0 0.0
2017-Oct-19 05:30N 37°57' W 008°52'1 3.0
2017-Oct-19 05:00N 37°58' W 008°54'3 6.8
2017-Oct-19 04:30N 38°01' W 008°53'0 0.1
2017-Oct-19 04:00N 38°01' W 008°53'0 0.3
2017-Oct-19 03:30N 38°01' W 008°53'0 0.3
2017-Oct-19 03:00N 38°01' W 008°53'3 5.0
2017-Oct-19 02:30N 37°59' W 008°54'2 4.7
2017-Oct-19 02:00N 37°57' W 008°52'0 0.0
2017-Oct-19 01:30N 37°57' W 008°52'0 0.0
2017-Oct-19 01:00N 37°57' W 008°52'0 0.0
2017-Oct-19 00:30N 37°57' W 008°52'0 0.0
2017-Oct-19 00:00N 37°57' W 008°52'0 0.0
2017-Oct-18 23:30N 37°57' W 008°52'0 0.0
2017-Oct-18 23:00N 37°57' W 008°52'0 0.0
2017-Oct-18 22:30N 37°57' W 008°52'0 0.0
2017-Oct-18 09:48N 37°57' W 008°52'1 4.7
2017-Oct-18 09:30N 37°56' W 008°54'2 4.8
2017-Oct-18 09:00N 37°58' W 008°55'5 9.7
2017-Oct-18 08:30N 37°54' W 008°53'4 7.2
2017-Oct-18 08:00N 37°50' W 008°52'4 7.3
2017-Oct-18 07:30N 37°47' W 008°51'3 6.2
2017-Oct-18 07:00N 37°50' W 008°52'4 8.9
2017-Oct-18 06:30N 37°54' W 008°50'4 8.3
2017-Oct-18 06:00N 37°57' W 008°52'0 0.0
2017-Oct-18 05:30N 37°57' W 008°52'0 0.0
2017-Oct-18 05:00N 37°57' W 008°52'0 0.0
2017-Oct-18 04:30N 37°57' W 008°52'0 0.0
2017-Oct-18 04:00N 37°57' W 008°52'0 0.0
2017-Oct-18 03:30N 37°57' W 008°52'0 0.0
2017-Oct-17 11:05N 37°57' W 008°52'0 0.0
2017-Oct-17 11:00N 37°57' W 008°52'0 0.0
2017-Oct-17 10:31N 37°57' W 008°52'2 4.3
2017-Oct-17 10:01N 37°55' W 008°52'4 8.4
2017-Oct-17 09:31N 37°51' W 008°52'0 0.3
2017-Oct-17 09:01N 37°51' W 008°52'0 0.1
2017-Oct-17 08:31N 37°51' W 008°52'2 4.4
2017-Oct-17 08:01N 37°48' W 008°52'4 7.4
2017-Oct-17 07:31N 37°52' W 008°52'3 5.4
2017-Oct-17 07:01N 37°55' W 008°50'3 6.0
2017-Oct-17 06:30N 37°57' W 008°52'0 0.0
2017-Oct-17 06:00N 37°57' W 008°52'0 0.0
2017-Oct-17 05:31N 37°57' W 008°52'2 4.4
2017-Oct-17 05:00N 37°59' W 008°53'3 5.6
2017-Oct-17 04:31N 38°02' W 008°52'0 0.2
2017-Oct-17 04:01N 38°02' W 008°52'0 0.2
2017-Oct-17 03:30N 38°01' W 008°52'0 0.1
2017-Oct-17 03:01N 38°01' W 008°52'3 6.7
2017-Oct-17 02:31N 37°59' W 008°54'2 4.2
2017-Oct-17 02:00N 37°57' W 008°52'0 0.0
2017-Oct-17 01:31N 37°57' W 008°52'0 0.0
2017-Oct-17 01:01N 37°57' W 008°52'0 0.0
2017-Oct-17 00:31N 37°57' W 008°52'0 0.0
2017-Oct-17 00:01N 37°57' W 008°52'0 0.0
2017-Oct-16 23:31N 37°57' W 008°52'0 0.0
2017-Oct-16 23:01N 37°57' W 008°52'0 0.0
2017-Oct-16 22:31N 37°57' W 008°52'0 0.0
2017-Oct-16 22:01N 37°57' W 008°52'5 9.0
2017-Oct-16 21:31N 37°53' W 008°52'1 2.3
2017-Oct-16 21:01N 37°52' W 008°52'0 0.1
2017-Oct-16 20:31N 37°51' W 008°51'2 4.2
2017-Oct-16 20:01N 37°54' W 008°51'3 5.7
2017-Oct-16 19:31N 37°56' W 008°52'1 1.6
2017-Oct-16 19:00N 37°57' W 008°52'0 0.0
2017-Oct-16 11:39N 37°57' W 008°52'0 0.0
2017-Oct-16 11:30N 37°57' W 008°52'0 0.0
2017-Oct-16 11:00N 37°57' W 008°52'0 0.0
2017-Oct-16 10:30N 37°57' W 008°52'5 9.6
2017-Oct-16 10:00N 37°52' W 008°52'2 3.8
2017-Oct-16 09:30N 37°50' W 008°52'0 0.1
2017-Oct-16 09:00N 37°50' W 008°52'0 0.2
2017-Oct-16 08:30N 37°50' W 008°52'2 3.3
2017-Oct-16 08:00N 37°49' W 008°52'3 5.7
2017-Oct-16 07:30N 37°52' W 008°52'2 3.9
2017-Oct-16 07:00N 37°53' W 008°50'1 1.9
2017-Oct-16 06:30N 37°54' W 008°50'4 7.7
2017-Oct-16 06:00N 37°57' W 008°52'0 0.0
2017-Oct-16 05:30N 37°57' W 008°52'0 0.0
2017-Oct-16 05:00N 37°57' W 008°52'2 4.1
2017-Oct-16 04:30N 37°59' W 008°54'5 9.7
2017-Oct-16 04:00N 38°03' W 008°52'5 9.6
2017-Oct-16 03:30N 38°08' W 008°50'3 5.6
2017-Oct-16 03:00N 38°10' W 008°49'0 0.3
2017-Oct-16 02:30N 38°10' W 008°49'0 0.3
2017-Oct-16 02:00N 38°10' W 008°49'0 0.4
2017-Oct-16 01:30N 38°10' W 008°49'2 3.2
2017-Oct-16 01:00N 38°11' W 008°48'0 0.4
2017-Oct-16 00:30N 38°11' W 008°48'0 0.3
2017-Oct-16 00:00N 38°11' W 008°48'3 6.4
2017-Oct-15 23:28N 38°14' W 008°49'2 4.9
2017-Oct-15 23:00N 38°12' W 008°48'3 5.3
2017-Oct-15 22:30N 38°10' W 008°49'4 8.3
2017-Oct-15 22:00N 38°06' W 008°51'510.3
2017-Oct-15 21:30N 38°02' W 008°55'510.1
2017-Oct-15 21:00N 37°57' W 008°54'1 2.6
2017-Oct-15 20:30N 37°57' W 008°52'  
2017-Oct-13 09:05N 37°57' W 008°52'0 0.8
2017-Oct-13 09:00N 37°57' W 008°52'0 0.2
2017-Oct-13 08:30N 37°57' W 008°52'0 0.0
2017-Oct-13 08:00N 37°57' W 008°52'2 3.6
2017-Oct-13 07:30N 37°58' W 008°54'510.7
2017-Oct-13 07:00N 38°04' W 008°53'510.6
2017-Oct-13 06:30N 38°09' W 008°50'0 0.2
2017-Oct-13 06:00N 38°09' W 008°50'0 0.2
2017-Oct-13 05:30N 38°09' W 008°50'0 0.2
2017-Oct-13 05:00N 38°09' W 008°50'0 0.2
2017-Oct-13 04:30N 38°09' W 008°50'3 7.0
2017-Oct-13 04:00N 38°05' W 008°50'510.3
2017-Oct-13 03:30N 38°00' W 008°53'4 8.0
2017-Oct-13 03:00N 37°56' W 008°52'1 1.4
2017-Oct-13 02:30N 37°57' W 008°52'0 0.0
2017-Oct-13 02:00N 37°57' W 008°52'0 0.0
2017-Oct-13 01:30N 37°57' W 008°52'0 0.0
2017-Oct-13 01:00N 37°57' W 008°52'0 0.0
2017-Oct-13 00:30N 37°57' W 008°52'0 0.3
2017-Oct-13 00:00N 37°57' W 008°52'0 0.0
2017-Oct-12 23:30N 37°57' W 008°52'4 8.6
2017-Oct-12 23:00N 37°54' W 008°49'1 1.0
2017-Oct-12 22:30N 37°53' W 008°50'0 0.0
2017-Oct-12 22:00N 37°53' W 008°50'0 0.2
2017-Oct-12 21:30N 37°53' W 008°50'1 1.2
2017-Oct-12 21:00N 37°54' W 008°50'1 1.3
2017-Oct-12 20:30N 37°54' W 008°49'0 0.1
2017-Oct-12 20:00N 37°54' W 008°49'0 0.0
2017-Oct-12 19:30N 37°54' W 008°49'0 0.9
2017-Oct-12 19:00N 37°54' W 008°49'4 8.4
2017-Oct-12 18:30N 37°57' W 008°52'0 0.4
2017-Oct-12 18:00N 37°57' W 008°52'0 0.0
2017-Oct-12 09:57N 37°57' W 008°52'0 0.1
2017-Oct-12 09:30N 37°57' W 008°52'0 0.0
2017-Oct-12 09:00N 37°57' W 008°52'0 0.0
2017-Oct-12 08:30N 37°57' W 008°52'0 0.0
2017-Oct-12 08:00N 37°57' W 008°52'1 2.4
2017-Oct-12 07:30N 37°57' W 008°54'511.0
2017-Oct-12 07:00N 38°03' W 008°52'510.3
2017-Oct-12 06:28N 38°08' W 008°50'0 0.1
2017-Oct-12 06:00N 38°08' W 008°50'0 0.2
2017-Oct-12 05:30N 38°08' W 008°50'0 0.1
2017-Oct-12 05:00N 38°08' W 008°50'2 3.4
2017-Oct-12 04:30N 38°06' W 008°51'3 7.0
2017-Oct-12 04:00N 38°03' W 008°50'0 0.2
2017-Oct-12 03:30N 38°03' W 008°50'0 0.4
2017-Oct-12 03:00N 38°03' W 008°50'3 6.0
2017-Oct-12 02:30N 38°01' W 008°53'5 9.5
2017-Oct-12 02:00N 37°56' W 008°53'1 2.3
2017-Oct-12 01:30N 37°57' W 008°52'0 0.0
2017-Oct-12 01:00N 37°57' W 008°52'0 0.0
2017-Oct-12 00:30N 37°57' W 008°52'4 7.6
2017-Oct-12 00:00N 37°54' W 008°49'0 0.5
2017-Oct-11 23:30N 37°54' W 008°49'0 0.1
2017-Oct-11 23:00N 37°54' W 008°49'0 0.2
2017-Oct-11 22:30N 37°54' W 008°49'1 1.2
2017-Oct-11 22:00N 37°54' W 008°49'0 0.2
2017-Oct-11 21:30N 37°54' W 008°49'0 0.2
2017-Oct-11 21:00N 37°54' W 008°49'0 0.1
2017-Oct-11 20:30N 37°54' W 008°49'0 0.2
2017-Oct-11 20:00N 37°54' W 008°49'2 4.2
2017-Oct-11 19:30N 37°55' W 008°51'2 3.6
2017-Oct-11 19:00N 37°57' W 008°52'3 0.2
2017-Oct-11 00:01N 37°60' W 008°53'5 9.4
2017-Oct-10 23:30N 37°55' W 008°52'2 4.5
2017-Oct-10 23:00N 37°54' W 008°50'0 0.1
2017-Oct-10 22:30N 37°54' W 008°50'0 0.2
2017-Oct-10 22:00N 37°54' W 008°50'2 3.8
2017-Oct-10 21:30N 37°55' W 008°51'2 3.7
2017-Oct-10 21:00N 37°57' W 008°52'0 0.0
2017-Oct-10 08:15N 37°57' W 008°52'0 0.3
2017-Oct-10 08:00N 37°57' W 008°52'  

Dump ship's entire track history